Time;durP1;ratioP1;P1;durP2;ratioP2;P2;SDS_P1;SDS_P2;PMS_P1;PMS_P2;Temp;Humidity;BMP_temperature;BMP_pressure;BME280_temperature;BME280_humidity;BME280_pressure;Samples;Min_cycle;Max_cycle;Signal;HPM_P1;HPM_P2
2022/02/25 00:01:45;;;;;;;8.30;1.80;;;3.50;99.90;;;;;;5010434;28;20575;-63
2022/02/25 00:04:13;;;;;;;9.37;2.23;;;3.50;99.90;;;;;;5003324;28;21003;-64
2022/02/25 00:06:43;;;;;;;8.17;1.73;;;3.50;99.90;;;;;;5013053;28;20506;-62
2022/02/25 00:09:11;;;;;;;11.10;2.17;;;3.40;99.90;;;;;;5013302;28;20493;-64
2022/02/25 00:11:40;;;;;;;8.07;2.10;;;3.30;99.90;;;;;;5012250;28;20543;-64
2022/02/25 00:14:08;;;;;;;7.13;2.17;;;3.40;99.90;;;;;;5013218;28;20480;-64
2022/02/25 00:16:37;;;;;;;8.27;2.27;;;3.40;99.90;;;;;;5013121;28;20520;-64
2022/02/25 00:19:05;;;;;;;7.33;2.23;;;3.40;99.90;;;;;;5013920;28;20476;-64
2022/02/25 00:21:33;;;;;;;7.13;1.70;;;3.40;99.90;;;;;;5011530;28;20502;-64
2022/02/25 00:24:03;;;;;;;5.53;1.90;;;3.50;99.90;;;;;;5002290;28;20505;-64
2022/02/25 00:26:31;;;;;;;9.07;2.23;;;3.50;99.90;;;;;;5011725;28;20495;-64
2022/02/25 00:28:59;;;;;;;9.97;2.20;;;3.50;99.90;;;;;;5012922;28;20514;-63
2022/02/25 00:31:28;;;;;;;10.40;2.10;;;3.50;99.90;;;;;;5010992;28;20992;-62
2022/02/25 00:33:56;;;;;;;7.83;2.10;;;3.40;99.90;;;;;;5012907;28;21021;-64
2022/02/25 00:36:24;;;;;;;8.37;2.13;;;3.40;99.90;;;;;;5028406;28;20473;-63
2022/02/25 00:38:52;;;;;;;8.93;2.13;;;3.40;99.90;;;;;;5025072;28;20475;-63
2022/02/25 00:41:22;;;;;;;11.93;2.20;;;3.40;99.90;;;;;;5031830;28;20508;-64
2022/02/25 00:43:51;;;;;;;8.40;2.23;;;3.50;99.90;;;;;;5031756;28;20557;-64
2022/02/25 00:46:19;;;;;;;8.43;1.60;;;3.40;99.90;;;;;;5032374;28;20470;-64
2022/02/25 00:48:49;;;;;;;10.27;2.10;;;3.40;99.90;;;;;;5033288;28;20486;-64
2022/02/25 00:51:18;;;;;;;8.40;2.13;;;3.40;99.90;;;;;;5041355;28;20478;-63
2022/02/25 00:53:48;;;;;;;9.83;1.97;;;3.50;99.90;;;;;;5032145;28;20848;-64
2022/02/25 00:56:16;;;;;;;8.83;1.97;;;3.50;99.90;;;;;;5032045;28;20619;-64
2022/02/25 00:58:45;;;;;;;8.30;1.80;;;3.50;99.90;;;;;;5031534;28;21739;-64
2022/02/25 01:01:14;;;;;;;9.00;2.23;;;3.40;99.90;;;;;;5032026;28;20472;-64
2022/02/25 01:03:43;;;;;;;16.77;2.80;;;3.50;99.90;;;;;;5031935;28;20512;-63
2022/02/25 01:06:11;;;;;;;8.53;2.20;;;3.40;99.90;;;;;;5031853;28;20535;-64
2022/02/25 01:08:39;;;;;;;11.80;2.17;;;3.40;99.90;;;;;;5031160;28;20891;-64
2022/02/25 01:11:08;;;;;;;7.57;1.77;;;3.30;99.90;;;;;;5031597;28;20585;-64
2022/02/25 01:13:36;;;;;;;8.13;2.10;;;3.40;99.90;;;;;;5031705;28;20481;-64
2022/02/25 01:16:06;;;;;;;7.57;2.07;;;3.30;99.90;;;;;;5031526;28;20476;-64
2022/02/25 01:18:34;;;;;;;8.27;2.17;;;3.30;99.90;;;;;;5032976;28;20486;-64
2022/02/25 01:21:02;;;;;;;9.73;1.57;;;3.30;99.90;;;;;;5045459;28;20478;-63
2022/02/25 01:23:30;;;;;;;10.37;2.00;;;3.30;99.90;;;;;;5031654;28;20481;-63
2022/02/25 01:25:58;;;;;;;10.83;1.90;;;3.40;99.90;;;;;;5031599;28;20539;-60
2022/02/25 01:28:27;;;;;;;9.07;1.60;;;3.30;99.90;;;;;;5031148;28;21137;-64
2022/02/25 01:30:55;;;;;;;10.57;1.93;;;3.30;99.90;;;;;;5031690;28;20488;-64
2022/02/25 01:33:24;;;;;;;8.73;2.10;;;3.30;99.90;;;;;;5031438;28;20462;-64
2022/02/25 01:35:52;;;;;;;11.37;1.93;;;3.40;99.90;;;;;;5031607;28;20520;-64
2022/02/25 01:38:21;;;;;;;6.87;1.77;;;3.40;99.90;;;;;;5025241;28;20479;-64
2022/02/25 01:40:50;;;;;;;9.83;2.17;;;3.50;99.90;;;;;;5037956;28;20451;-63
2022/02/25 01:43:18;;;;;;;6.60;1.83;;;3.50;99.90;;;;;;5013754;28;20480;-64
2022/02/25 01:45:46;;;;;;;11.17;2.40;;;3.60;99.90;;;;;;5011373;28;20479;-64
2022/02/25 01:48:15;;;;;;;8.57;1.77;;;3.60;99.90;;;;;;5029094;28;21005;-64
2022/02/25 01:50:47;;;;;;;6.90;1.53;;;3.60;99.90;;;;;;5031020;28;20819;-64
2022/02/25 01:53:15;;;;;;;8.53;2.10;;;3.50;99.90;;;;;;5030985;28;20484;-63
2022/02/25 01:55:43;;;;;;;8.30;2.10;;;3.60;99.90;;;;;;5030170;28;20605;-63
2022/02/25 01:58:12;;;;;;;7.17;1.67;;;3.60;99.90;;;;;;5025301;28;20595;-64
2022/02/25 02:00:42;;;;;;;10.60;1.80;;;3.50;99.90;;;;;;5030506;28;20482;-64
2022/02/25 02:03:11;;;;;;;8.50;2.10;;;3.60;99.90;;;;;;5028109;28;20494;-60
2022/02/25 02:05:39;;;;;;;8.00;1.67;;;3.60;99.90;;;;;;5031196;28;20491;-64
2022/02/25 02:08:09;;;;;;;11.73;2.50;;;3.60;99.90;;;;;;5030306;28;20912;-63
2022/02/25 02:10:38;;;;;;;8.93;2.37;;;3.60;99.90;;;;;;5015319;28;20475;-64
2022/02/25 02:13:06;;;;;;;5.97;1.77;;;3.60;99.90;;;;;;5011052;28;20812;-64
2022/02/25 02:15:34;;;;;;;8.70;2.43;;;3.60;99.90;;;;;;5010928;28;20471;-64
2022/02/25 02:18:03;;;;;;;6.93;1.60;;;3.60;99.90;;;;;;5004482;28;20470;-64
2022/02/25 02:20:31;;;;;;;6.70;1.60;;;3.60;99.90;;;;;;5017971;28;20470;-64
2022/02/25 02:23:00;;;;;;;9.83;2.37;;;3.60;99.90;;;;;;5010796;28;20480;-64
2022/02/25 02:25:28;;;;;;;7.23;2.00;;;3.60;99.90;;;;;;5011038;28;21023;-64
2022/02/25 02:30:42;;;;;;;5.73;1.80;;;3.60;99.90;;;;;;5010440;28;20851;-64
2022/02/25 02:33:10;;;;;;;5.00;1.67;;;3.70;99.90;;;;;;5011160;28;20503;-63
2022/02/25 02:35:39;;;;;;;7.07;1.60;;;3.60;99.90;;;;;;5010991;28;20501;-64
2022/02/25 02:38:08;;;;;;;8.00;1.90;;;3.60;99.90;;;;;;5026078;28;20535;-64
2022/02/25 02:40:36;;;;;;;6.70;1.80;;;3.60;99.90;;;;;;5037564;28;20471;-64
2022/02/25 02:43:06;;;;;;;6.90;1.77;;;3.50;99.90;;;;;;5015039;28;20498;-64
2022/02/25 02:45:34;;;;;;;11.27;1.73;;;3.50;99.90;;;;;;5010089;28;20472;-64
2022/02/25 02:48:02;;;;;;;8.40;1.77;;;3.60;99.90;;;;;;5010860;28;20868;-64
2022/02/25 02:50:31;;;;;;;11.10;1.87;;;3.60;99.90;;;;;;5010711;28;20469;-64
2022/02/25 02:52:59;;;;;;;8.80;1.80;;;3.60;99.90;;;;;;5010660;28;20534;-63
2022/02/25 02:55:29;;;;;;;7.13;1.97;;;3.60;99.90;;;;;;5009896;28;20895;-64
2022/02/25 02:57:57;;;;;;;8.47;1.83;;;3.60;99.90;;;;;;5010697;28;20486;-64
2022/02/25 03:00:25;;;;;;;8.07;2.40;;;3.60;99.90;;;;;;5011359;28;20558;-63
2022/02/25 03:02:53;;;;;;;10.17;2.20;;;3.50;99.90;;;;;;5010559;28;20486;-64
2022/02/25 03:05:23;;;;;;;6.80;1.80;;;3.50;99.90;;;;;;5003359;28;20484;-63
2022/02/25 03:07:51;;;;;;;8.27;2.07;;;3.50;99.90;;;;;;5014271;28;20479;-64
2022/02/25 03:10:20;;;;;;;8.03;2.07;;;3.50;99.90;;;;;;5014537;28;20468;-64
2022/02/25 03:12:50;;;;;;;7.43;1.80;;;3.50;99.90;;;;;;5014017;28;20812;-64
2022/02/25 03:15:18;;;;;;;6.17;1.57;;;3.50;99.90;;;;;;5013693;28;20562;-64
2022/02/25 03:17:48;;;;;;;6.23;1.87;;;3.50;99.90;;;;;;5014194;28;20470;-63
2022/02/25 03:20:16;;;;;;;7.97;1.90;;;3.40;99.90;;;;;;5014988;28;21080;-64
2022/02/25 03:22:46;;;;;;;10.50;1.97;;;3.50;99.90;;;;;;5012437;28;20557;-64
2022/02/25 03:25:18;;;;;;;7.47;2.20;;;3.40;99.90;;;;;;5007449;28;20498;-63
2022/02/25 03:27:46;;;;;;;5.57;1.90;;;3.40;99.90;;;;;;5013513;28;20501;-63
2022/02/25 03:30:17;;;;;;;9.33;2.10;;;3.40;99.90;;;;;;5013876;28;20472;-64
2022/02/25 03:32:45;;;;;;;7.60;1.97;;;3.40;99.90;;;;;;5013679;28;20500;-64
2022/02/25 03:35:15;;;;;;;8.57;1.87;;;3.40;99.90;;;;;;5013431;28;20897;-64
2022/02/25 03:37:43;;;;;;;6.87;1.93;;;3.30;99.90;;;;;;5013692;28;20556;-64
2022/02/25 03:40:12;;;;;;;10.63;2.20;;;3.30;99.90;;;;;;5014050;28;20549;-62
2022/02/25 03:42:41;;;;;;;5.67;1.90;;;3.30;99.90;;;;;;5013896;28;20493;-64
2022/02/25 03:45:11;;;;;;;6.07;1.57;;;3.30;99.90;;;;;;5027210;28;20514;-64
2022/02/25 03:47:40;;;;;;;4.77;1.73;;;3.30;99.90;;;;;;5007270;28;20468;-64
2022/02/25 03:50:10;;;;;;;8.87;2.20;;;3.30;99.90;;;;;;5013709;28;20496;-64
2022/02/25 03:52:38;;;;;;;5.97;1.40;;;3.30;99.90;;;;;;5013387;28;20497;-64
2022/02/25 03:55:08;;;;;;;12.57;2.03;;;3.30;99.90;;;;;;5032308;28;20544;-64
2022/02/25 03:57:36;;;;;;;6.27;1.57;;;3.30;99.90;;;;;;5013346;28;20467;-64
2022/02/25 04:00:07;;;;;;;9.03;1.77;;;3.30;99.90;;;;;;5014136;28;20479;-64
2022/02/25 04:02:42;;;;;;;6.73;1.37;;;3.30;99.90;;;;;;5033153;28;20487;-64
2022/02/25 04:05:11;;;;;;;6.57;1.60;;;3.30;99.90;;;;;;5027386;28;20554;-64
2022/02/25 04:07:41;;;;;;;10.60;1.90;;;3.30;99.90;;;;;;5022565;28;20886;-64
2022/02/25 04:10:10;;;;;;;6.73;1.33;;;3.40;99.90;;;;;;5044499;28;20496;-64
2022/02/25 04:12:38;;;;;;;7.43;2.00;;;3.40;99.90;;;;;;5039403;28;20535;-64
2022/02/25 04:15:08;;;;;;;5.83;1.63;;;3.40;99.90;;;;;;5032606;28;20878;-64
2022/02/25 04:17:36;;;;;;;8.17;1.97;;;3.40;99.90;;;;;;5031708;28;21007;-64
2022/02/25 04:20:07;;;;;;;10.93;2.40;;;3.40;99.90;;;;;;5033524;28;20480;-64
2022/02/25 04:22:35;;;;;;;8.90;1.67;;;3.40;99.90;;;;;;5032548;28;20473;-64
2022/02/25 04:25:04;;;;;;;8.83;1.60;;;3.40;99.90;;;;;;5032251;28;20466;-64
2022/02/25 04:27:32;;;;;;;5.50;1.93;;;3.40;99.90;;;;;;5032379;28;20540;-64
2022/02/25 04:30:00;;;;;;;7.03;2.03;;;3.40;99.90;;;;;;5032766;28;21056;-64
2022/02/25 04:32:28;;;;;;;5.67;1.50;;;3.40;99.90;;;;;;5032220;28;20481;-63
2022/02/25 04:34:56;;;;;;;11.43;2.03;;;3.30;99.90;;;;;;5033788;28;20501;-64
2022/02/25 04:37:26;;;;;;;5.17;1.60;;;3.40;99.90;;;;;;5043852;28;20470;-61
2022/02/25 04:39:54;;;;;;;9.40;1.77;;;3.40;99.90;;;;;;5037967;28;20505;-64
2022/02/25 04:42:23;;;;;;;5.07;1.80;;;3.40;99.90;;;;;;5031759;28;21012;-64
2022/02/25 04:44:51;;;;;;;7.27;1.80;;;3.40;99.90;;;;;;5031726;28;20830;-64
2022/02/25 04:47:19;;;;;;;6.37;1.60;;;3.50;99.90;;;;;;5032407;28;20518;-64
2022/02/25 04:49:47;;;;;;;8.17;2.00;;;3.50;99.90;;;;;;5032244;28;20482;-64
2022/02/25 04:52:17;;;;;;;5.47;1.63;;;3.50;99.90;;;;;;5032190;28;20481;-64
2022/02/25 04:54:47;;;;;;;9.43;1.80;;;3.40;99.90;;;;;;5012375;28;20479;-64
2022/02/25 04:57:15;;;;;;;5.90;1.90;;;3.40;99.90;;;;;;5022423;28;20563;-64
2022/02/25 04:59:43;;;;;;;7.10;2.00;;;3.50;99.90;;;;;;5032671;28;20526;-63
2022/02/25 05:02:11;;;;;;;7.10;1.90;;;3.50;99.90;;;;;;5033758;28;20471;-63
2022/02/25 05:04:41;;;;;;;11.17;2.00;;;3.50;99.90;;;;;;5036626;28;21067;-64
2022/02/25 05:07:09;;;;;;;8.43;1.83;;;3.50;99.90;;;;;;5042578;28;20503;-64
2022/02/25 05:09:37;;;;;;;6.93;1.67;;;3.50;99.90;;;;;;5031817;28;20545;-63
2022/02/25 05:12:08;;;;;;;11.47;2.17;;;3.50;99.90;;;;;;5031105;28;20468;-64
2022/02/25 05:20:24;;;;;;;5.13;1.37;;;3.70;99.90;;;;;;5032166;28;20893;-64
2022/02/25 05:22:54;;;;;;;7.57;1.83;;;3.70;99.90;;;;;;5011256;28;20480;-64
2022/02/25 05:25:24;;;;;;;11.20;2.20;;;3.80;99.90;;;;;;5011927;28;20488;-64
2022/02/25 05:27:56;;;;;;;6.40;1.53;;;3.80;99.90;;;;;;5005329;28;21007;-64
2022/02/25 05:30:25;;;;;;;8.50;1.60;;;3.80;99.90;;;;;;5000091;28;21009;-64
2022/02/25 05:32:54;;;;;;;8.60;1.80;;;3.80;99.90;;;;;;5002859;28;20475;-63
2022/02/25 05:35:22;;;;;;;11.40;1.93;;;3.80;99.90;;;;;;5000295;28;20502;-64
2022/02/25 05:37:51;;;;;;;8.70;1.80;;;3.80;99.90;;;;;;5002968;28;20558;-63
2022/02/25 05:40:20;;;;;;;6.10;1.50;;;3.90;99.90;;;;;;5002379;28;20558;-64
2022/02/25 05:42:53;;;;;;;8.03;1.77;;;3.90;99.90;;;;;;5003470;28;20481;-64
2022/02/25 05:45:21;;;;;;;8.40;1.87;;;4.00;99.90;;;;;;5000220;28;20542;-63
2022/02/25 05:47:53;;;;;;;7.17;1.87;;;4.00;99.90;;;;;;5004043;28;20541;-64
2022/02/25 05:50:22;;;;;;;7.10;1.80;;;4.00;99.90;;;;;;5002032;28;20476;-64
2022/02/25 05:52:51;;;;;;;8.57;1.63;;;4.00;99.90;;;;;;5008281;28;21015;-64
2022/02/25 05:55:20;;;;;;;11.13;2.17;;;4.00;99.90;;;;;;5010814;28;20495;-62
2022/02/25 05:57:49;;;;;;;9.13;1.90;;;4.00;99.90;;;;;;5010877;28;20837;-63
2022/02/25 06:00:20;;;;;;;8.93;2.10;;;3.90;99.90;;;;;;5012148;28;20471;-64
2022/02/25 06:02:49;;;;;;;9.23;2.00;;;4.00;99.90;;;;;;5010978;28;20479;-64
2022/02/25 06:05:19;;;;;;;10.00;1.60;;;3.90;99.90;;;;;;5005273;28;20477;-64
2022/02/25 06:07:47;;;;;;;9.03;1.73;;;3.90;99.90;;;;;;5010704;28;20479;-63
2022/02/25 06:10:16;;;;;;;7.77;1.50;;;3.90;99.90;;;;;;5010938;28;20480;-64
2022/02/25 06:12:45;;;;;;;5.20;2.03;;;3.90;99.90;;;;;;5010913;28;20475;-64
2022/02/25 06:15:13;;;;;;;9.63;2.43;;;3.90;99.90;;;;;;5003438;28;20564;-63
2022/02/25 06:17:47;;;;;;;11.53;2.43;;;3.90;99.90;;;;;;5011048;28;20479;-64
2022/02/25 06:20:17;;;;;;;10.10;2.50;;;3.90;99.90;;;;;;5017052;28;20470;-64
2022/02/25 06:22:45;;;;;;;12.37;2.33;;;3.90;99.90;;;;;;5009916;28;20470;-63
2022/02/25 06:25:14;;;;;;;11.67;2.97;;;3.90;99.90;;;;;;5019051;28;20480;-63
2022/02/25 06:27:42;;;;;;;7.43;2.03;;;3.90;99.90;;;;;;5024669;28;20482;-63
2022/02/25 06:30:12;;;;;;;10.17;2.43;;;3.90;99.90;;;;;;5024011;28;21057;-64
2022/02/25 06:32:41;;;;;;;9.30;2.20;;;3.90;99.90;;;;;;5014087;28;20481;-64
2022/02/25 06:35:11;;;;;;;8.63;1.97;;;3.90;99.90;;;;;;5014832;28;20477;-64
2022/02/25 06:37:41;;;;;;;8.17;2.10;;;3.80;99.90;;;;;;5022774;28;20504;-63
2022/02/25 06:40:11;;;;;;;7.53;2.10;;;3.90;99.90;;;;;;5026761;28;20554;-63
2022/02/25 06:42:39;;;;;;;11.23;2.33;;;3.90;99.90;;;;;;5035800;28;20565;-63
2022/02/25 06:45:15;;;;;;;7.90;2.30;;;3.90;99.90;;;;;;5037488;28;20497;-63
2022/02/25 06:47:43;;;;;;;8.67;2.70;;;3.90;99.90;;;;;;5034557;28;20508;-63
2022/02/25 06:50:14;;;;;;;8.87;2.40;;;3.80;99.90;;;;;;5021725;28;20841;-63
2022/02/25 06:52:43;;;;;;;11.70;2.20;;;3.90;99.90;;;;;;5027083;28;20533;-63
2022/02/25 06:55:13;;;;;;;9.50;2.40;;;3.90;99.90;;;;;;5048292;28;20469;-64
2022/02/25 06:58:03;;;;;;;6.60;2.13;;;3.80;99.90;;;;;;5033703;28;20468;-64
2022/02/25 07:00:32;;;;;;;8.17;2.20;;;3.80;99.90;;;;;;5044744;28;20523;-64
2022/02/25 07:03:01;;;;;;;9.63;2.30;;;3.80;99.90;;;;;;5037655;28;20471;-64
2022/02/25 07:05:31;;;;;;;9.57;2.23;;;3.80;99.90;;;;;;5034172;28;20471;-63
2022/02/25 07:07:59;;;;;;;11.20;1.80;;;3.80;99.90;;;;;;5035256;28;20479;-64
2022/02/25 07:10:31;;;;;;;6.63;2.10;;;3.90;99.90;;;;;;5033833;28;20489;-64
2022/02/25 07:13:00;;;;;;;6.37;2.23;;;3.80;99.90;;;;;;5033054;28;20487;-64
2022/02/25 07:15:29;;;;;;;15.73;2.83;;;3.90;99.90;;;;;;5030870;28;21006;-63
2022/02/25 07:17:58;;;;;;;13.20;2.13;;;3.90;99.90;;;;;;5033750;28;20496;-63
2022/02/25 07:20:26;;;;;;;10.60;2.20;;;3.90;99.90;;;;;;5037475;28;20592;-63
2022/02/25 07:22:57;;;;;;;9.63;2.30;;;4.00;99.90;;;;;;5035545;28;20927;-63
2022/02/25 07:25:25;;;;;;;8.00;2.43;;;4.10;99.90;;;;;;5040829;28;20508;-63
2022/02/25 07:27:53;;;;;;;12.07;2.77;;;4.10;99.90;;;;;;5033593;28;20513;-62
2022/02/25 07:30:22;;;;;;;10.03;2.43;;;4.20;99.90;;;;;;5033651;28;20479;-63
2022/02/25 07:32:51;;;;;;;10.10;2.30;;;4.20;99.90;;;;;;5033449;28;20475;-63
2022/02/25 07:35:22;;;;;;;11.07;2.70;;;4.30;99.90;;;;;;5027215;28;20558;-63
2022/02/25 07:37:51;;;;;;;9.07;2.30;;;4.30;99.90;;;;;;5028649;28;20485;-63
2022/02/25 07:40:24;;;;;;;10.67;2.60;;;4.40;99.90;;;;;;5037317;28;20484;-63
2022/02/25 07:42:53;;;;;;;8.67;2.30;;;4.40;99.90;;;;;;5034542;28;20478;-63
2022/02/25 07:45:25;;;;;;;11.27;2.60;;;4.30;99.90;;;;;;5033463;28;21029;-63
2022/02/25 07:47:53;;;;;;;10.47;2.50;;;4.30;99.90;;;;;;5028678;28;20551;-63
2022/02/25 07:50:21;;;;;;;9.53;2.70;;;4.30;99.90;;;;;;5037773;28;20500;-63
2022/02/25 07:52:49;;;;;;;11.30;2.57;;;4.30;99.90;;;;;;5039907;28;20872;-63
2022/02/25 07:55:17;;;;;;;10.43;3.03;;;4.30;99.90;;;;;;5034173;28;20878;-63
2022/02/25 07:57:47;;;;;;;10.60;2.83;;;4.30;99.90;;;;;;5038299;28;20521;-63
2022/02/25 08:00:25;;;;;;;8.10;2.63;;;4.30;99.90;;;;;;5036105;28;20485;-63
2022/02/25 08:02:54;;;;;;;11.07;2.57;;;4.30;99.90;;;;;;5035736;28;20507;-63
2022/02/25 08:05:23;;;;;;;11.53;3.00;;;4.30;99.90;;;;;;5035982;28;20532;-63
2022/02/25 08:07:52;;;;;;;11.33;3.37;;;4.30;99.90;;;;;;5038924;28;20910;-63
2022/02/25 08:10:21;;;;;;;8.60;3.70;;;4.30;99.90;;;;;;5040268;28;20510;-63
2022/02/25 08:12:51;;;;;;;7.80;2.97;;;4.30;99.90;;;;;;5038641;28;21001;-63
2022/02/25 08:15:19;;;;;;;11.20;3.47;;;4.30;99.90;;;;;;5035981;28;20471;-62
2022/02/25 08:17:48;;;;;;;6.80;2.87;;;4.40;99.90;;;;;;5041960;28;20810;-63
2022/02/25 08:20:16;;;;;;;8.03;3.43;;;4.40;99.90;;;;;;5040791;28;20469;-63
2022/02/25 08:22:45;;;;;;;12.43;4.20;;;4.40;99.90;;;;;;5038912;28;20471;-63
2022/02/25 08:25:13;;;;;;;10.67;3.77;;;4.40;99.90;;;;;;5034006;28;20844;-61
2022/02/25 08:27:43;;;;;;;10.70;4.03;;;4.40;99.90;;;;;;5040706;28;20536;-62
2022/02/25 08:30:15;;;;;;;11.23;4.13;;;4.30;99.90;;;;;;5041761;28;20480;-60
2022/02/25 08:32:46;;;;;;;11.90;4.37;;;4.30;99.90;;;;;;5036192;28;21012;-63
2022/02/25 08:35:15;;;;;;;11.20;4.03;;;4.30;99.90;;;;;;5032014;28;20483;-63
2022/02/25 08:37:44;;;;;;;14.00;4.73;;;4.30;99.90;;;;;;5036905;28;20545;-63
2022/02/25 08:40:13;;;;;;;12.70;4.83;;;4.30;99.90;;;;;;5032602;28;20470;-63
2022/02/25 08:42:42;;;;;;;12.80;4.53;;;4.30;99.90;;;;;;5038344;28;20484;-62
2022/02/25 08:45:14;;;;;;;10.37;5.17;;;4.30;99.90;;;;;;5049034;28;20504;-63
2022/02/25 08:47:43;;;;;;;13.73;4.33;;;4.30;99.90;;;;;;5046818;28;20497;-62
2022/02/25 08:50:14;;;;;;;14.87;4.57;;;4.30;99.90;;;;;;5046851;28;20524;-60
2022/02/25 08:52:43;;;;;;;15.20;4.50;;;4.30;99.90;;;;;;5036226;28;20487;-62
2022/02/25 08:55:11;;;;;;;10.23;4.30;;;4.30;99.90;;;;;;5032183;28;20550;-63
2022/02/25 08:57:42;;;;;;;13.17;5.03;;;4.30;99.90;;;;;;5022751;28;20570;-62
2022/02/25 09:00:15;;;;;;;10.20;4.50;;;4.30;99.90;;;;;;5031456;28;20541;-63
2022/02/25 09:02:45;;;;;;;10.60;4.13;;;4.30;99.90;;;;;;5039116;28;20494;-63
2022/02/25 09:05:13;;;;;;;11.33;4.27;;;4.30;99.90;;;;;;5038478;28;20475;-63
2022/02/25 09:07:44;;;;;;;8.10;3.80;;;4.40;99.90;;;;;;5039682;28;20498;-61
2022/02/25 09:10:13;;;;;;;10.00;3.97;;;4.50;99.90;;;;;;5040412;28;20488;-63
2022/02/25 09:12:46;;;;;;;7.97;3.87;;;4.50;99.90;;;;;;5038633;28;20895;-63
2022/02/25 09:15:18;;;;;;;12.70;4.47;;;4.60;99.90;;;;;;5039312;28;20517;-63
2022/02/25 09:17:48;;;;;;;14.63;4.20;;;4.80;99.90;;;;;;5034790;28;20483;-61
2022/02/25 09:20:16;;;;;;;9.43;4.07;;;4.90;99.90;;;;;;5035034;28;20474;-63
2022/02/25 09:22:48;;;;;;;11.97;4.30;;;5.20;99.90;;;;;;5033322;28;20510;-63
2022/02/25 09:25:16;;;;;;;9.70;3.83;;;5.30;99.90;;;;;;5030044;28;20238;-63
2022/02/25 09:27:45;;;;;;;7.77;3.60;;;5.30;99.90;;;;;;5039272;28;20478;-63
2022/02/25 09:30:16;;;;;;;11.03;4.03;;;5.20;99.90;;;;;;5033596;28;20470;-63
2022/02/25 09:32:45;;;;;;;6.63;3.40;;;5.10;99.90;;;;;;5038398;28;20481;-63
2022/02/25 09:35:13;;;;;;;6.20;3.20;;;5.00;99.90;;;;;;5043512;28;20243;-63
2022/02/25 09:37:42;;;;;;;9.17;3.73;;;5.00;99.90;;;;;;5043730;28;20474;-62
2022/02/25 09:40:12;;;;;;;10.03;3.77;;;5.00;99.90;;;;;;5048581;28;20478;-63
2022/02/25 09:42:43;;;;;;;8.57;3.90;;;5.10;99.90;;;;;;5047025;28;21058;-63
2022/02/25 09:45:14;;;;;;;11.53;3.60;;;5.20;99.90;;;;;;5035224;28;20505;-63
2022/02/25 09:47:43;;;;;;;7.57;3.67;;;5.20;99.90;;;;;;5035088;28;20512;-62
2022/02/25 09:50:14;;;;;;;11.90;4.30;;;5.20;99.90;;;;;;5049582;28;20720;-62
2022/02/25 09:52:44;;;;;;;9.43;3.83;;;5.20;99.90;;;;;;5040169;28;20474;-62
2022/02/25 09:55:21;;;;;;;8.70;3.63;;;5.20;99.90;;;;;;5044656;28;20978;-63
2022/02/25 09:57:49;;;;;;;7.93;3.10;;;5.10;99.90;;;;;;5043246;28;20862;-63
2022/02/25 10:00:19;;;;;;;8.20;3.17;;;5.00;99.90;;;;;;5043519;28;20477;-63
2022/02/25 10:02:50;;;;;;;12.43;3.43;;;4.90;99.90;;;;;;5040851;28;20478;-63
2022/02/25 10:05:20;;;;;;;10.30;3.80;;;4.80;99.90;;;;;;5044402;28;20478;-63
2022/02/25 10:07:49;;;;;;;10.10;3.53;;;4.80;99.90;;;;;;5045817;28;20243;-64
2022/02/25 10:10:20;;;;;;;19.15;4.88;;;4.70;99.90;;;;;;5039358;28;20440;-63
2022/02/25 10:12:57;;;;;;;13.83;3.77;;;4.70;99.90;;;;;;5044885;28;20648;-63
2022/02/25 10:15:29;;;;;;;10.77;5.27;;;4.70;99.90;;;;;;5033930;28;20521;-63
2022/02/25 10:18:05;;;;;;;129.47;59.97;;;4.60;99.90;;;;;;5026863;28;20483;-63
2022/02/25 10:20:34;;;;;;;47.70;23.00;;;4.60;99.90;;;;;;5029645;28;20230;-63
2022/02/25 10:23:25;;;;;;;172.37;75.00;;;4.50;99.90;;;;;;5026672;28;20478;-63
2022/02/25 10:25:55;;;;;;;77.80;42.23;;;4.60;99.90;;;;;;5028254;28;20485;-63
2022/02/25 10:28:30;;;;;;;39.13;21.27;;;4.60;99.90;;;;;;5025058;28;20570;-63
2022/02/25 10:31:26;;;;;;;16.40;8.57;;;4.60;99.90;;;;;;5024639;28;20482;-62
2022/02/25 10:34:06;;;;;;;11.63;5.43;;;4.60;99.90;;;;;;5022977;28;21021;-63
2022/02/25 10:36:44;;;;;;;14.27;5.47;;;4.60;99.90;;;;;;5026245;28;20238;-63
2022/02/25 10:39:19;;;;;;;8.83;4.17;;;4.60;99.90;;;;;;5026814;28;20469;-63
2022/02/25 10:42:02;;;;;;;11.13;3.23;;;4.60;99.90;;;;;;5025975;28;20482;-63
2022/02/25 10:44:42;;;;;;;10.23;2.73;;;4.50;99.90;;;;;;5024314;28;20562;-63
2022/02/25 10:47:16;;;;;;;6.47;2.83;;;4.40;99.90;;;;;;5027159;28;20973;-63
2022/02/25 10:49:47;;;;;;;8.73;3.40;;;4.50;99.90;;;;;;5027624;28;20478;-63
2022/02/25 10:52:23;;;;;;;8.10;3.27;;;4.50;99.90;;;;;;5027806;28;20979;-63
2022/02/25 10:54:51;;;;;;;10.00;4.27;;;4.60;99.90;;;;;;5028771;28;20255;-63
2022/02/25 10:57:25;;;;;;;9.83;4.00;;;4.70;99.90;;;;;;5029812;28;20561;-63
2022/02/25 10:59:56;;;;;;;7.33;2.80;;;4.70;99.90;;;;;;5028082;28;20536;-63
2022/02/25 11:02:34;;;;;;;8.43;3.00;;;4.70;99.90;;;;;;5022199;28;20245;-63
2022/02/25 11:05:07;;;;;;;7.10;3.80;;;4.80;99.90;;;;;;5022954;28;20475;-62
2022/02/25 11:07:38;;;;;;;6.47;3.03;;;4.90;99.90;;;;;;5025339;28;20516;-63
2022/02/25 11:10:10;;;;;;;11.10;2.87;;;5.10;99.90;;;;;;5027768;28;20481;-63
2022/02/25 11:12:40;;;;;;;5.17;2.30;;;5.10;99.90;;;;;;5025851;28;20508;-63
2022/02/25 11:15:11;;;;;;;9.27;2.07;;;5.20;99.90;;;;;;5027569;28;20250;-63
2022/02/25 11:17:43;;;;;;;3.20;1.37;;;5.40;99.90;;;;;;5027904;28;20235;-63
2022/02/25 11:20:20;;;;;;;5.13;1.50;;;5.70;99.90;;;;;;5028317;28;20485;-63
2022/02/25 11:22:54;;;;;;;4.30;1.50;;;5.80;99.90;;;;;;5030149;28;20483;-63
2022/02/25 11:25:22;;;;;;;3.90;1.90;;;5.90;99.90;;;;;;5023272;28;20272;-63
2022/02/25 11:27:51;;;;;;;5.90;2.03;;;6.10;99.90;;;;;;5027370;28;20228;-63
2022/02/25 11:30:25;;;;;;;5.73;2.23;;;6.10;99.90;;;;;;5031632;28;20228;-63
2022/02/25 11:33:01;;;;;;;4.03;2.47;;;6.30;99.90;;;;;;5027781;28;20233;-62
2022/02/25 11:35:33;;;;;;;4.40;2.00;;;6.60;99.90;;;;;;5029316;28;20237;-63
2022/02/25 11:38:05;;;;;;;5.27;2.83;;;6.80;99.90;;;;;;5029827;28;20236;-63
2022/02/25 11:40:51;;;;;;;6.70;3.07;;;7.00;99.90;;;;;;5031313;28;20647;-63
2022/02/25 11:43:35;;;;;;;7.53;3.93;;;7.10;99.90;;;;;;5028323;28;20282;-63
2022/02/25 11:46:05;;;;;;;4.60;2.70;;;7.40;99.90;;;;;;5027115;28;20237;-62
2022/02/25 11:48:46;;;;;;;4.33;2.77;;;7.50;99.90;;;;;;5031745;28;20278;-62
2022/02/25 11:51:34;;;;;;;3.43;1.50;;;7.80;99.90;;;;;;5032895;28;20323;-62
2022/02/25 11:54:29;;;;;;;6.17;2.17;;;7.90;99.90;;;;;;5027537;28;20240;-63
2022/02/25 11:57:28;;;;;;;6.57;1.80;;;8.00;99.90;;;;;;5027470;28;20274;-63
2022/02/25 12:00:30;;;;;;;3.80;1.60;;;7.70;99.90;;;;;;5027677;28;20243;-62
2022/02/25 12:03:15;;;;;;;4.60;1.47;;;7.50;99.90;;;;;;5021916;28;20631;-63
2022/02/25 12:05:46;;;;;;;4.87;1.40;;;7.30;99.90;;;;;;5026986;28;20323;-62
2022/02/25 12:08:30;;;;;;;5.30;1.20;;;7.30;99.90;;;;;;5031090;28;20232;-63
2022/02/25 12:11:14;;;;;;;6.03;1.83;;;7.20;99.90;;;;;;5022326;28;20295;-62
2022/02/25 12:13:46;;;;;;;4.63;1.30;;;7.00;99.90;;;;;;5008782;28;20593;-62
2022/02/25 12:16:27;;;;;;;3.87;0.90;;;6.80;99.90;;;;;;5027639;28;20268;-63
2022/02/25 12:19:08;;;;;;;6.30;1.10;;;6.60;99.90;;;;;;5024842;28;20228;-63
2022/02/25 12:21:44;;;;;;;6.47;1.70;;;6.50;99.90;;;;;;5029904;28;20240;-63
2022/02/25 12:24:16;;;;;;;3.83;1.10;;;6.50;99.90;;;;;;5025464;28;20573;-63
2022/02/25 12:27:01;;;;;;;7.47;1.20;;;6.40;99.90;;;;;;5028884;28;20657;-63
2022/02/25 12:29:36;;;;;;;4.57;1.37;;;6.50;99.90;;;;;;5023051;28;20237;-63
2022/02/25 12:32:05;;;;;;;7.73;1.10;;;6.40;99.90;;;;;;5023862;28;20319;-63
2022/02/25 12:34:33;;;;;;;4.87;1.10;;;6.50;99.90;;;;;;5023994;28;20228;-63
2022/02/25 12:37:05;;;;;;;7.47;1.53;;;6.60;99.90;;;;;;5025089;28;20272;-63
2022/02/25 12:39:35;;;;;;;6.97;1.30;;;6.60;99.90;;;;;;5022560;28;20242;-63
2022/02/25 12:42:07;;;;;;;6.33;1.63;;;6.70;99.90;;;;;;5024133;28;20257;-62
2022/02/25 12:44:38;;;;;;;5.37;1.40;;;6.70;99.90;;;;;;5024665;28;20244;-63
2022/02/25 12:47:08;;;;;;;5.17;1.23;;;6.90;99.90;;;;;;5026715;28;20615;-63
2022/02/25 12:49:38;;;;;;;4.10;1.33;;;7.20;99.90;;;;;;5024445;28;20263;-63
2022/02/25 12:52:08;;;;;;;6.07;1.40;;;7.40;99.90;;;;;;5026751;28;20232;-63
2022/02/25 12:54:41;;;;;;;6.33;1.40;;;7.60;99.90;;;;;;5029844;28;20236;-62
2022/02/25 12:57:11;;;;;;;7.07;1.50;;;7.50;99.90;;;;;;5027441;28;20225;-62
2022/02/25 12:59:44;;;;;;;6.33;1.30;;;7.50;99.90;;;;;;5026982;28;20291;-61
2022/02/25 13:02:14;;;;;;;7.93;1.50;;;7.50;99.90;;;;;;5029024;28;20286;-62
2022/02/25 13:04:46;;;;;;;7.73;1.57;;;7.40;99.90;;;;;;5024944;28;20244;-62
2022/02/25 13:07:16;;;;;;;8.73;1.97;;;7.50;99.90;;;;;;5031839;28;20291;-63
2022/02/25 13:09:47;;;;;;;8.33;1.80;;;7.70;99.90;;;;;;5027029;28;20240;-62
2022/02/25 13:12:17;;;;;;;13.37;2.00;;;7.90;99.90;;;;;;5030414;28;20276;-62
2022/02/25 13:14:47;;;;;;;11.60;2.23;;;7.90;99.90;;;;;;5024904;28;20701;-62
2022/02/25 13:17:18;;;;;;;15.13;2.40;;;7.90;99.90;;;;;;5024051;28;20233;-62
2022/02/25 13:19:48;;;;;;;12.13;2.00;;;8.00;99.90;;;;;;5022694;28;20248;-62